sensor_id;sensor_type;location;lat;lon;timestamp;P1;durP1;ratioP1;P2;durP2;ratioP2
54372;SDS011;69157;53.094;10.016;2023-11-21T00:02:05;4.10;;;2.05;;
54372;SDS011;69157;53.094;10.016;2023-11-21T00:04:33;5.50;;;2.42;;
54372;SDS011;69157;53.094;10.016;2023-11-21T00:06:59;5.90;;;2.40;;
54372;SDS011;69157;53.094;10.016;2023-11-21T00:09:25;7.72;;;2.53;;
54372;SDS011;69157;53.094;10.016;2023-11-21T00:11:52;9.27;;;2.50;;
54372;SDS011;69157;53.094;10.016;2023-11-21T00:14:18;6.47;;;2.28;;
54372;SDS011;69157;53.094;10.016;2023-11-21T00:16:44;4.22;;;2.10;;
54372;SDS011;69157;53.094;10.016;2023-11-21T00:19:11;4.85;;;2.65;;
54372;SDS011;69157;53.094;10.016;2023-11-21T00:21:38;5.93;;;2.53;;
54372;SDS011;69157;53.094;10.016;2023-11-21T00:24:04;6.07;;;2.78;;
54372;SDS011;69157;53.094;10.016;2023-11-21T00:26:30;7.20;;;2.13;;
54372;SDS011;69157;53.094;10.016;2023-11-21T00:29:01;3.28;;;1.88;;
54372;SDS011;69157;53.094;10.016;2023-11-21T00:31:27;5.63;;;2.17;;
54372;SDS011;69157;53.094;10.016;2023-11-21T00:33:53;5.63;;;2.05;;
54372;SDS011;69157;53.094;10.016;2023-11-21T00:36:20;5.80;;;2.45;;
54372;SDS011;69157;53.094;10.016;2023-11-21T00:38:46;6.50;;;2.30;;
54372;SDS011;69157;53.094;10.016;2023-11-21T00:41:13;4.13;;;2.35;;
54372;SDS011;69157;53.094;10.016;2023-11-21T00:43:39;4.25;;;2.35;;
54372;SDS011;69157;53.094;10.016;2023-11-21T00:46:05;6.53;;;1.85;;
54372;SDS011;69157;53.094;10.016;2023-11-21T00:48:34;3.85;;;2.20;;
54372;SDS011;69157;53.094;10.016;2023-11-21T00:51:00;3.75;;;1.80;;
54372;SDS011;69157;53.094;10.016;2023-11-21T00:53:26;4.00;;;1.75;;
54372;SDS011;69157;53.094;10.016;2023-11-21T00:55:52;8.40;;;2.47;;
54372;SDS011;69157;53.094;10.016;2023-11-21T00:58:23;4.90;;;1.98;;
54372;SDS011;69157;53.094;10.016;2023-11-21T01:00:49;5.45;;;2.58;;
54372;SDS011;69157;53.094;10.016;2023-11-21T01:03:15;4.82;;;2.13;;
54372;SDS011;69157;53.094;10.016;2023-11-21T01:05:43;6.82;;;2.00;;
54372;SDS011;69157;53.094;10.016;2023-11-21T01:08:10;4.45;;;1.73;;
54372;SDS011;69157;53.094;10.016;2023-11-21T01:10:37;3.90;;;1.70;;
54372;SDS011;69157;53.094;10.016;2023-11-21T01:13:03;3.50;;;2.10;;
54372;SDS011;69157;53.094;10.016;2023-11-21T01:15:30;5.85;;;1.80;;
54372;SDS011;69157;53.094;10.016;2023-11-21T01:17:56;4.20;;;2.20;;
54372;SDS011;69157;53.094;10.016;2023-11-21T01:20:22;4.43;;;1.70;;
54372;SDS011;69157;53.094;10.016;2023-11-21T01:22:47;4.80;;;1.88;;
54372;SDS011;69157;53.094;10.016;2023-11-21T01:25:14;4.90;;;2.08;;
54372;SDS011;69157;53.094;10.016;2023-11-21T01:27:42;4.00;;;2.35;;
54372;SDS011;69157;53.094;10.016;2023-11-21T01:30:08;7.43;;;2.67;;
54372;SDS011;69157;53.094;10.016;2023-11-21T01:32:36;9.75;;;2.50;;
54372;SDS011;69157;53.094;10.016;2023-11-21T01:35:02;3.65;;;2.05;;
54372;SDS011;69157;53.094;10.016;2023-11-21T01:37:30;8.20;;;2.40;;
54372;SDS011;69157;53.094;10.016;2023-11-21T01:39:57;4.82;;;2.15;;
54372;SDS011;69157;53.094;10.016;2023-11-21T01:42:24;4.05;;;1.90;;
54372;SDS011;69157;53.094;10.016;2023-11-21T01:44:49;5.50;;;2.03;;
54372;SDS011;69157;53.094;10.016;2023-11-21T01:47:16;4.32;;;1.70;;
54372;SDS011;69157;53.094;10.016;2023-11-21T01:49:45;2.05;;;1.15;;
54372;SDS011;69157;53.094;10.016;2023-11-21T01:52:12;2.50;;;1.20;;
54372;SDS011;69157;53.094;10.016;2023-11-21T01:54:38;1.02;;;0.80;;
54372;SDS011;69157;53.094;10.016;2023-11-21T01:57:04;1.63;;;1.02;;
54372;SDS011;69157;53.094;10.016;2023-11-21T01:59:35;0.60;;;0.57;;
54372;SDS011;69157;53.094;10.016;2023-11-21T02:02:02;1.80;;;0.75;;
54372;SDS011;69157;53.094;10.016;2023-11-21T02:04:30;0.95;;;0.70;;
54372;SDS011;69157;53.094;10.016;2023-11-21T02:06:56;1.92;;;1.17;;
54372;SDS011;69157;53.094;10.016;2023-11-21T02:09:25;2.00;;;1.27;;
54372;SDS011;69157;53.094;10.016;2023-11-21T02:11:52;2.20;;;1.20;;
54372;SDS011;69157;53.094;10.016;2023-11-21T02:14:18;2.72;;;1.38;;
54372;SDS011;69157;53.094;10.016;2023-11-21T02:16:47;3.53;;;1.42;;
54372;SDS011;69157;53.094;10.016;2023-11-21T02:19:14;3.05;;;1.30;;
54372;SDS011;69157;53.094;10.016;2023-11-21T02:21:45;2.85;;;1.45;;
54372;SDS011;69157;53.094;10.016;2023-11-21T02:24:11;2.67;;;1.85;;
54372;SDS011;69157;53.094;10.016;2023-11-21T02:26:38;2.75;;;1.23;;
54372;SDS011;69157;53.094;10.016;2023-11-21T02:29:04;2.22;;;1.40;;
54372;SDS011;69157;53.094;10.016;2023-11-21T02:31:30;2.15;;;1.50;;
54372;SDS011;69157;53.094;10.016;2023-11-21T02:33:57;1.80;;;1.02;;
54372;SDS011;69157;53.094;10.016;2023-11-21T02:36:23;2.42;;;1.20;;
54372;SDS011;69157;53.094;10.016;2023-11-21T02:38:50;2.35;;;0.93;;
54372;SDS011;69157;53.094;10.016;2023-11-21T02:41:16;2.08;;;1.17;;
54372;SDS011;69157;53.094;10.016;2023-11-21T02:43:42;1.20;;;1.00;;
54372;SDS011;69157;53.094;10.016;2023-11-21T02:46:09;3.05;;;1.45;;
54372;SDS011;69157;53.094;10.016;2023-11-21T02:48:36;2.85;;;1.35;;
54372;SDS011;69157;53.094;10.016;2023-11-21T02:51:04;4.35;;;1.67;;
54372;SDS011;69157;53.094;10.016;2023-11-21T02:53:30;3.20;;;1.65;;
54372;SDS011;69157;53.094;10.016;2023-11-21T02:55:56;4.07;;;1.75;;
54372;SDS011;69157;53.094;10.016;2023-11-21T02:58:22;2.80;;;1.38;;
54372;SDS011;69157;53.094;10.016;2023-11-21T03:00:48;2.83;;;1.80;;
54372;SDS011;69157;53.094;10.016;2023-11-21T03:03:14;3.08;;;1.63;;
54372;SDS011;69157;53.094;10.016;2023-11-21T03:05:40;2.22;;;1.15;;
54372;SDS011;69157;53.094;10.016;2023-11-21T03:08:06;4.43;;;1.60;;
54372;SDS011;69157;53.094;10.016;2023-11-21T03:10:33;3.22;;;1.77;;
54372;SDS011;69157;53.094;10.016;2023-11-21T03:12:59;3.60;;;2.00;;
54372;SDS011;69157;53.094;10.016;2023-11-21T03:15:28;3.78;;;2.20;;
54372;SDS011;69157;53.094;10.016;2023-11-21T03:17:58;4.73;;;1.70;;
54372;SDS011;69157;53.094;10.016;2023-11-21T03:20:24;4.50;;;1.90;;
54372;SDS011;69157;53.094;10.016;2023-11-21T03:22:52;3.38;;;1.90;;
54372;SDS011;69157;53.094;10.016;2023-11-21T03:25:18;6.95;;;2.17;;
54372;SDS011;69157;53.094;10.016;2023-11-21T03:27:46;5.13;;;2.20;;
54372;SDS011;69157;53.094;10.016;2023-11-21T03:30:12;3.60;;;1.75;;
54372;SDS011;69157;53.094;10.016;2023-11-21T03:32:38;3.78;;;2.05;;
54372;SDS011;69157;53.094;10.016;2023-11-21T03:35:04;3.60;;;2.20;;
54372;SDS011;69157;53.094;10.016;2023-11-21T03:37:30;4.80;;;2.25;;
54372;SDS011;69157;53.094;10.016;2023-11-21T03:39:56;6.57;;;2.63;;
54372;SDS011;69157;53.094;10.016;2023-11-21T03:42:23;5.07;;;1.90;;
54372;SDS011;69157;53.094;10.016;2023-11-21T03:44:51;8.05;;;2.53;;
54372;SDS011;69157;53.094;10.016;2023-11-21T03:47:17;6.28;;;2.95;;
54372;SDS011;69157;53.094;10.016;2023-11-21T03:49:44;4.45;;;2.38;;
54372;SDS011;69157;53.094;10.016;2023-11-21T03:52:11;6.13;;;3.08;;
54372;SDS011;69157;53.094;10.016;2023-11-21T03:54:37;6.03;;;3.38;;
54372;SDS011;69157;53.094;10.016;2023-11-21T03:57:03;7.65;;;3.47;;
54372;SDS011;69157;53.094;10.016;2023-11-21T03:59:29;6.50;;;3.40;;
54372;SDS011;69157;53.094;10.016;2023-11-21T04:01:56;5.80;;;3.20;;
54372;SDS011;69157;53.094;10.016;2023-11-21T04:04:23;6.55;;;2.67;;
54372;SDS011;69157;53.094;10.016;2023-11-21T04:06:51;6.35;;;2.78;;
54372;SDS011;69157;53.094;10.016;2023-11-21T04:09:17;6.40;;;3.55;;
54372;SDS011;69157;53.094;10.016;2023-11-21T04:11:43;7.90;;;3.05;;
54372;SDS011;69157;53.094;10.016;2023-11-21T04:14:10;7.72;;;4.25;;
54372;SDS011;69157;53.094;10.016;2023-11-21T04:16:36;6.03;;;3.35;;
54372;SDS011;69157;53.094;10.016;2023-11-21T04:19:04;4.50;;;2.90;;
54372;SDS011;69157;53.094;10.016;2023-11-21T04:21:30;6.72;;;3.47;;
54372;SDS011;69157;53.094;10.016;2023-11-21T04:23:57;5.18;;;2.78;;
54372;SDS011;69157;53.094;10.016;2023-11-21T04:26:24;7.68;;;3.88;;
54372;SDS011;69157;53.094;10.016;2023-11-21T04:28:50;10.05;;;3.92;;
54372;SDS011;69157;53.094;10.016;2023-11-21T04:31:15;6.45;;;4.00;;
54372;SDS011;69157;53.094;10.016;2023-11-21T04:33:43;8.15;;;3.65;;
54372;SDS011;69157;53.094;10.016;2023-11-21T04:36:09;8.25;;;3.20;;
54372;SDS011;69157;53.094;10.016;2023-11-21T04:38:35;7.82;;;3.83;;
54372;SDS011;69157;53.094;10.016;2023-11-21T04:41:01;7.47;;;3.60;;
54372;SDS011;69157;53.094;10.016;2023-11-21T04:43:28;8.25;;;3.58;;
54372;SDS011;69157;53.094;10.016;2023-11-21T04:45:54;5.70;;;3.40;;
54372;SDS011;69157;53.094;10.016;2023-11-21T04:48:20;8.30;;;3.88;;
54372;SDS011;69157;53.094;10.016;2023-11-21T04:50:49;7.97;;;3.58;;
54372;SDS011;69157;53.094;10.016;2023-11-21T04:53:15;10.55;;;3.92;;
54372;SDS011;69157;53.094;10.016;2023-11-21T04:55:41;11.57;;;4.18;;
54372;SDS011;69157;53.094;10.016;2023-11-21T04:58:07;8.48;;;4.22;;
54372;SDS011;69157;53.094;10.016;2023-11-21T05:00:35;8.98;;;3.03;;
54372;SDS011;69157;53.094;10.016;2023-11-21T05:03:04;11.60;;;4.45;;
54372;SDS011;69157;53.094;10.016;2023-11-21T05:05:32;10.38;;;4.60;;
54372;SDS011;69157;53.094;10.016;2023-11-21T05:07:59;6.40;;;3.15;;
54372;SDS011;69157;53.094;10.016;2023-11-21T05:10:26;5.60;;;3.50;;
54372;SDS011;69157;53.094;10.016;2023-11-21T05:12:52;7.75;;;4.45;;
54372;SDS011;69157;53.094;10.016;2023-11-21T05:15:18;5.60;;;3.45;;
54372;SDS011;69157;53.094;10.016;2023-11-21T05:17:46;6.68;;;3.35;;
54372;SDS011;69157;53.094;10.016;2023-11-21T05:20:15;5.28;;;3.65;;
54372;SDS011;69157;53.094;10.016;2023-11-21T05:22:48;7.90;;;3.88;;
54372;SDS011;69157;53.094;10.016;2023-11-21T05:25:14;6.80;;;3.95;;
54372;SDS011;69157;53.094;10.016;2023-11-21T05:27:43;5.20;;;2.78;;
54372;SDS011;69157;53.094;10.016;2023-11-21T05:30:09;6.78;;;3.58;;
54372;SDS011;69157;53.094;10.016;2023-11-21T05:32:37;9.95;;;4.22;;
54372;SDS011;69157;53.094;10.016;2023-11-21T05:35:03;7.90;;;3.42;;
54372;SDS011;69157;53.094;10.016;2023-11-21T05:37:37;8.70;;;4.13;;
54372;SDS011;69157;53.094;10.016;2023-11-21T05:40:04;7.55;;;4.03;;
54372;SDS011;69157;53.094;10.016;2023-11-21T05:42:34;10.27;;;4.15;;
54372;SDS011;69157;53.094;10.016;2023-11-21T05:45:00;8.60;;;4.60;;
54372;SDS011;69157;53.094;10.016;2023-11-21T05:47:44;10.38;;;3.20;;
54372;SDS011;69157;53.094;10.016;2023-11-21T05:50:11;7.38;;;3.72;;
54372;SDS011;69157;53.094;10.016;2023-11-21T05:52:39;10.38;;;4.15;;
54372;SDS011;69157;53.094;10.016;2023-11-21T05:55:05;8.43;;;4.20;;
54372;SDS011;69157;53.094;10.016;2023-11-21T05:57:34;6.82;;;3.85;;
54372;SDS011;69157;53.094;10.016;2023-11-21T06:00:02;8.30;;;3.78;;
54372;SDS011;69157;53.094;10.016;2023-11-21T06:02:48;7.07;;;3.13;;
54372;SDS011;69157;53.094;10.016;2023-11-21T06:05:18;6.20;;;3.30;;
54372;SDS011;69157;53.094;10.016;2023-11-21T06:07:45;8.57;;;3.70;;
54372;SDS011;69157;53.094;10.016;2023-11-21T06:10:11;8.35;;;3.70;;
54372;SDS011;69157;53.094;10.016;2023-11-21T06:12:58;8.30;;;4.60;;
54372;SDS011;69157;53.094;10.016;2023-11-21T06:15:25;7.50;;;4.13;;
54372;SDS011;69157;53.094;10.016;2023-11-21T06:18:11;6.88;;;3.97;;
54372;SDS011;69157;53.094;10.016;2023-11-21T06:20:37;8.35;;;4.10;;
54372;SDS011;69157;53.094;10.016;2023-11-21T06:23:22;7.30;;;3.40;;
54372;SDS011;69157;53.094;10.016;2023-11-21T06:25:48;9.45;;;4.00;;
54372;SDS011;69157;53.094;10.016;2023-11-21T06:28:14;9.63;;;4.80;;
54372;SDS011;69157;53.094;10.016;2023-11-21T06:30:42;9.50;;;4.97;;
54372;SDS011;69157;53.094;10.016;2023-11-21T06:33:28;9.98;;;4.22;;
54372;SDS011;69157;53.094;10.016;2023-11-21T06:35:54;7.18;;;4.32;;
54372;SDS011;69157;53.094;10.016;2023-11-21T06:38:20;8.07;;;4.47;;
54372;SDS011;69157;53.094;10.016;2023-11-21T06:40:46;8.07;;;3.90;;
54372;SDS011;69157;53.094;10.016;2023-11-21T06:43:13;8.77;;;4.28;;
54372;SDS011;69157;53.094;10.016;2023-11-21T06:45:40;8.98;;;3.95;;
54372;SDS011;69157;53.094;10.016;2023-11-21T06:48:06;6.15;;;3.72;;
54372;SDS011;69157;53.094;10.016;2023-11-21T06:50:32;7.25;;;3.13;;
54372;SDS011;69157;53.094;10.016;2023-11-21T06:52:58;8.10;;;4.32;;
54372;SDS011;69157;53.094;10.016;2023-11-21T06:55:24;6.90;;;4.30;;
54372;SDS011;69157;53.094;10.016;2023-11-21T06:57:50;5.63;;;3.50;;
54372;SDS011;69157;53.094;10.016;2023-11-21T07:00:17;5.18;;;3.13;;
54372;SDS011;69157;53.094;10.016;2023-11-21T07:02:44;6.65;;;4.07;;
54372;SDS011;69157;53.094;10.016;2023-11-21T07:05:11;9.80;;;3.50;;
54372;SDS011;69157;53.094;10.016;2023-11-21T07:07:39;6.30;;;3.35;;
54372;SDS011;69157;53.094;10.016;2023-11-21T07:10:05;6.18;;;3.70;;
54372;SDS011;69157;53.094;10.016;2023-11-21T07:12:33;4.82;;;3.10;;
54372;SDS011;69157;53.094;10.016;2023-11-21T07:15:02;5.88;;;3.17;;
54372;SDS011;69157;53.094;10.016;2023-11-21T07:17:30;7.78;;;3.15;;
54372;SDS011;69157;53.094;10.016;2023-11-21T07:19:56;6.88;;;3.83;;
54372;SDS011;69157;53.094;10.016;2023-11-21T07:22:22;6.93;;;3.47;;
54372;SDS011;69157;53.094;10.016;2023-11-21T07:24:51;5.22;;;2.70;;
54372;SDS011;69157;53.094;10.016;2023-11-21T07:27:17;7.15;;;3.85;;
54372;SDS011;69157;53.094;10.016;2023-11-21T07:29:43;8.00;;;3.70;;
54372;SDS011;69157;53.094;10.016;2023-11-21T07:32:09;6.13;;;2.78;;
54372;SDS011;69157;53.094;10.016;2023-11-21T07:34:38;5.35;;;2.70;;
54372;SDS011;69157;53.094;10.016;2023-11-21T07:37:05;16.83;;;3.88;;
54372;SDS011;69157;53.094;10.016;2023-11-21T07:39:31;7.10;;;3.35;;
54372;SDS011;69157;53.094;10.016;2023-11-21T07:41:57;9.75;;;4.20;;
54372;SDS011;69157;53.094;10.016;2023-11-21T07:44:24;7.60;;;3.28;;
54372;SDS011;69157;53.094;10.016;2023-11-21T07:46:51;8.02;;;3.47;;
54372;SDS011;69157;53.094;10.016;2023-11-21T07:51:48;7.18;;;3.58;;
54372;SDS011;69157;53.094;10.016;2023-11-21T07:54:14;5.60;;;2.95;;
54372;SDS011;69157;53.094;10.016;2023-11-21T07:56:40;7.75;;;3.03;;
54372;SDS011;69157;53.094;10.016;2023-11-21T07:59:07;6.40;;;3.63;;
54372;SDS011;69157;53.094;10.016;2023-11-21T08:01:33;5.70;;;3.10;;
54372;SDS011;69157;53.094;10.016;2023-11-21T08:03:59;4.78;;;3.08;;
54372;SDS011;69157;53.094;10.016;2023-11-21T08:06:31;12.95;;;5.20;;
54372;SDS011;69157;53.094;10.016;2023-11-21T08:08:57;12.35;;;5.95;;
54372;SDS011;69157;53.094;10.016;2023-11-21T08:11:23;9.65;;;4.35;;
54372;SDS011;69157;53.094;10.016;2023-11-21T08:13:49;7.82;;;3.47;;
54372;SDS011;69157;53.094;10.016;2023-11-21T08:16:15;6.68;;;3.97;;
54372;SDS011;69157;53.094;10.016;2023-11-21T08:18:42;9.05;;;3.38;;
54372;SDS011;69157;53.094;10.016;2023-11-21T08:21:08;4.72;;;2.33;;
54372;SDS011;69157;53.094;10.016;2023-11-21T08:23:37;5.47;;;3.35;;
54372;SDS011;69157;53.094;10.016;2023-11-21T08:26:04;9.73;;;3.55;;
54372;SDS011;69157;53.094;10.016;2023-11-21T08:28:31;8.35;;;3.60;;
54372;SDS011;69157;53.094;10.016;2023-11-21T08:30:57;5.43;;;2.60;;
54372;SDS011;69157;53.094;10.016;2023-11-21T08:33:25;6.13;;;2.70;;
54372;SDS011;69157;53.094;10.016;2023-11-21T08:35:51;4.38;;;2.45;;
54372;SDS011;69157;53.094;10.016;2023-11-21T08:38:17;5.80;;;3.30;;
54372;SDS011;69157;53.094;10.016;2023-11-21T08:40:43;6.32;;;2.83;;
54372;SDS011;69157;53.094;10.016;2023-11-21T08:43:09;5.78;;;3.45;;
54372;SDS011;69157;53.094;10.016;2023-11-21T08:45:37;5.43;;;2.22;;
54372;SDS011;69157;53.094;10.016;2023-11-21T08:48:04;7.60;;;3.70;;
54372;SDS011;69157;53.094;10.016;2023-11-21T08:50:30;7.72;;;3.42;;
54372;SDS011;69157;53.094;10.016;2023-11-21T08:52:56;6.85;;;3.17;;
54372;SDS011;69157;53.094;10.016;2023-11-21T08:55:22;7.57;;;3.15;;
54372;SDS011;69157;53.094;10.016;2023-11-21T08:57:48;6.53;;;3.10;;
54372;SDS011;69157;53.094;10.016;2023-11-21T09:00:15;4.65;;;2.85;;
54372;SDS011;69157;53.094;10.016;2023-11-21T09:02:45;4.70;;;3.05;;
54372;SDS011;69157;53.094;10.016;2023-11-21T09:05:13;5.35;;;3.50;;
54372;SDS011;69157;53.094;10.016;2023-11-21T09:07:39;6.28;;;2.92;;
54372;SDS011;69157;53.094;10.016;2023-11-21T09:10:07;5.70;;;3.50;;
54372;SDS011;69157;53.094;10.016;2023-11-21T09:12:35;5.88;;;3.60;;
54372;SDS011;69157;53.094;10.016;2023-11-21T09:15:06;10.23;;;4.10;;
54372;SDS011;69157;53.094;10.016;2023-11-21T09:17:34;7.97;;;2.97;;
54372;SDS011;69157;53.094;10.016;2023-11-21T09:20:01;5.03;;;3.30;;
54372;SDS011;69157;53.094;10.016;2023-11-21T09:22:30;7.93;;;2.83;;
54372;SDS011;69157;53.094;10.016;2023-11-21T09:24:57;6.55;;;3.80;;
54372;SDS011;69157;53.094;10.016;2023-11-21T09:27:23;6.63;;;3.53;;
54372;SDS011;69157;53.094;10.016;2023-11-21T09:29:50;5.93;;;3.30;;
54372;SDS011;69157;53.094;10.016;2023-11-21T09:32:18;4.43;;;2.92;;
54372;SDS011;69157;53.094;10.016;2023-11-21T09:34:46;7.53;;;3.30;;
54372;SDS011;69157;53.094;10.016;2023-11-21T09:37:12;7.10;;;3.65;;
54372;SDS011;69157;53.094;10.016;2023-11-21T09:39:39;5.97;;;3.30;;
54372;SDS011;69157;53.094;10.016;2023-11-21T09:42:09;6.95;;;3.25;;
54372;SDS011;69157;53.094;10.016;2023-11-21T09:44:41;5.32;;;2.80;;
54372;SDS011;69157;53.094;10.016;2023-11-21T09:47:10;5.63;;;2.80;;
54372;SDS011;69157;53.094;10.016;2023-11-21T09:49:39;6.45;;;3.17;;
54372;SDS011;69157;53.094;10.016;2023-11-21T09:52:06;8.30;;;3.97;;
54372;SDS011;69157;53.094;10.016;2023-11-21T09:54:35;5.43;;;3.33;;
54372;SDS011;69157;53.094;10.016;2023-11-21T09:57:02;6.28;;;3.22;;
54372;SDS011;69157;53.094;10.016;2023-11-21T09:59:30;6.72;;;3.75;;
54372;SDS011;69157;53.094;10.016;2023-11-21T10:01:57;7.03;;;3.50;;
54372;SDS011;69157;53.094;10.016;2023-11-21T10:04:23;4.75;;;2.85;;
54372;SDS011;69157;53.094;10.016;2023-11-21T10:06:49;6.28;;;3.22;;
54372;SDS011;69157;53.094;10.016;2023-11-21T10:09:17;7.05;;;3.15;;
54372;SDS011;69157;53.094;10.016;2023-11-21T10:11:45;5.75;;;3.05;;
54372;SDS011;69157;53.094;10.016;2023-11-21T10:14:12;5.85;;;2.97;;
54372;SDS011;69157;53.094;10.016;2023-11-21T10:16:40;5.00;;;2.40;;
54372;SDS011;69157;53.094;10.016;2023-11-21T10:19:08;4.88;;;2.33;;
54372;SDS011;69157;53.094;10.016;2023-11-21T10:21:35;6.20;;;2.72;;
54372;SDS011;69157;53.094;10.016;2023-11-21T10:24:02;5.65;;;2.33;;
54372;SDS011;69157;53.094;10.016;2023-11-21T10:26:28;5.93;;;3.20;;
54372;SDS011;69157;53.094;10.016;2023-11-21T10:29:00;3.83;;;2.25;;
54372;SDS011;69157;53.094;10.016;2023-11-21T10:31:35;5.53;;;3.13;;
54372;SDS011;69157;53.094;10.016;2023-11-21T10:34:19;4.68;;;2.85;;
54372;SDS011;69157;53.094;10.016;2023-11-21T10:36:46;9.02;;;2.75;;
54372;SDS011;69157;53.094;10.016;2023-11-21T10:39:19;4.43;;;2.38;;
54372;SDS011;69157;53.094;10.016;2023-11-21T10:41:45;5.38;;;3.15;;
54372;SDS011;69157;53.094;10.016;2023-11-21T10:44:13;4.32;;;2.50;;
54372;SDS011;69157;53.094;10.016;2023-11-21T10:46:45;3.00;;;1.85;;
54372;SDS011;69157;53.094;10.016;2023-11-21T10:49:15;5.05;;;2.72;;
54372;SDS011;69157;53.094;10.016;2023-11-21T10:51:43;6.38;;;3.38;;
54372;SDS011;69157;53.094;10.016;2023-11-21T10:54:09;5.32;;;2.60;;
54372;SDS011;69157;53.094;10.016;2023-11-21T10:56:35;4.28;;;2.42;;
54372;SDS011;69157;53.094;10.016;2023-11-21T10:59:05;4.50;;;3.10;;
54372;SDS011;69157;53.094;10.016;2023-11-21T11:01:33;4.50;;;2.75;;
54372;SDS011;69157;53.094;10.016;2023-11-21T11:03:59;5.85;;;3.03;;
54372;SDS011;69157;53.094;10.016;2023-11-21T11:06:26;3.85;;;2.33;;
54372;SDS011;69157;53.094;10.016;2023-11-21T11:08:54;4.78;;;2.75;;
54372;SDS011;69157;53.094;10.016;2023-11-21T11:11:20;5.25;;;2.80;;
54372;SDS011;69157;53.094;10.016;2023-11-21T11:13:46;3.80;;;2.22;;
54372;SDS011;69157;53.094;10.016;2023-11-21T11:16:13;4.57;;;2.53;;
54372;SDS011;69157;53.094;10.016;2023-11-21T11:18:42;7.57;;;2.58;;
54372;SDS011;69157;53.094;10.016;2023-11-21T11:21:13;4.95;;;2.38;;
54372;SDS011;69157;53.094;10.016;2023-11-21T11:26:12;4.60;;;2.42;;
54372;SDS011;69157;53.094;10.016;2023-11-21T11:33:58;2.95;;;2.20;;
54372;SDS011;69157;53.094;10.016;2023-11-21T11:39:34;5.07;;;2.70;;
54372;SDS011;69157;53.094;10.016;2023-11-21T11:42:01;3.35;;;2.10;;
54372;SDS011;69157;53.094;10.016;2023-11-21T11:47:24;4.80;;;2.95;;
54372;SDS011;69157;53.094;10.016;2023-11-21T11:49:56;3.75;;;1.98;;
54372;SDS011;69157;53.094;10.016;2023-11-21T11:52:31;7.30;;;3.33;;
54372;SDS011;69157;53.094;10.016;2023-11-21T11:54:59;3.72;;;2.22;;
54372;SDS011;69157;53.094;10.016;2023-11-21T11:57:26;2.50;;;1.90;;
54372;SDS011;69157;53.094;10.016;2023-11-21T12:02:40;4.32;;;2.35;;
54372;SDS011;69157;53.094;10.016;2023-11-21T12:05:13;3.47;;;2.08;;
54372;SDS011;69157;53.094;10.016;2023-11-21T12:07:46;3.80;;;2.30;;
54372;SDS011;69157;53.094;10.016;2023-11-21T12:10:16;5.00;;;2.53;;
54372;SDS011;69157;53.094;10.016;2023-11-21T12:12:45;3.65;;;2.53;;
54372;SDS011;69157;53.094;10.016;2023-11-21T12:15:14;2.85;;;1.75;;
54372;SDS011;69157;53.094;10.016;2023-11-21T12:17:41;2.95;;;1.73;;
54372;SDS011;69157;53.094;10.016;2023-11-21T12:20:08;2.72;;;1.80;;
54372;SDS011;69157;53.094;10.016;2023-11-21T12:22:43;2.83;;;1.65;;
54372;SDS011;69157;53.094;10.016;2023-11-21T12:25:09;2.63;;;1.92;;
54372;SDS011;69157;53.094;10.016;2023-11-21T12:27:40;2.95;;;1.75;;
54372;SDS011;69157;53.094;10.016;2023-11-21T12:30:06;2.95;;;1.77;;
54372;SDS011;69157;53.094;10.016;2023-11-21T12:32:38;4.00;;;1.90;;
54372;SDS011;69157;53.094;10.016;2023-11-21T12:35:05;2.40;;;1.98;;
54372;SDS011;69157;53.094;10.016;2023-11-21T12:37:31;3.22;;;1.85;;
54372;SDS011;69157;53.094;10.016;2023-11-21T12:39:57;4.43;;;1.73;;
54372;SDS011;69157;53.094;10.016;2023-11-21T12:42:24;3.30;;;1.45;;
54372;SDS011;69157;53.094;10.016;2023-11-21T12:45:09;2.58;;;1.55;;
54372;SDS011;69157;53.094;10.016;2023-11-21T12:47:49;2.88;;;1.23;;
54372;SDS011;69157;53.094;10.016;2023-11-21T12:50:22;2.33;;;1.63;;
54372;SDS011;69157;53.094;10.016;2023-11-21T12:52:58;2.35;;;1.58;;
54372;SDS011;69157;53.094;10.016;2023-11-21T12:55:24;3.05;;;1.60;;
54372;SDS011;69157;53.094;10.016;2023-11-21T12:57:52;2.88;;;1.80;;
54372;SDS011;69157;53.094;10.016;2023-11-21T13:00:33;3.90;;;1.90;;
54372;SDS011;69157;53.094;10.016;2023-11-21T13:03:02;2.83;;;1.73;;
54372;SDS011;69157;53.094;10.016;2023-11-21T13:05:29;4.05;;;1.80;;
54372;SDS011;69157;53.094;10.016;2023-11-21T13:07:56;4.00;;;1.77;;
54372;SDS011;69157;53.094;10.016;2023-11-21T13:10:26;4.72;;;2.13;;
54372;SDS011;69157;53.094;10.016;2023-11-21T13:12:55;4.65;;;1.88;;
54372;SDS011;69157;53.094;10.016;2023-11-21T13:15:23;3.42;;;2.00;;
54372;SDS011;69157;53.094;10.016;2023-11-21T13:17:49;2.78;;;1.60;;
54372;SDS011;69157;53.094;10.016;2023-11-21T13:20:17;1.98;;;1.40;;
54372;SDS011;69157;53.094;10.016;2023-11-21T13:22:52;1.88;;;1.63;;
54372;SDS011;69157;53.094;10.016;2023-11-21T13:25:27;5.72;;;2.58;;
54372;SDS011;69157;53.094;10.016;2023-11-21T13:27:56;3.40;;;2.10;;
54372;SDS011;69157;53.094;10.016;2023-11-21T13:30:22;3.63;;;1.15;;
54372;SDS011;69157;53.094;10.016;2023-11-21T13:32:55;3.05;;;1.75;;
54372;SDS011;69157;53.094;10.016;2023-11-21T13:35:27;2.85;;;2.00;;
54372;SDS011;69157;53.094;10.016;2023-11-21T13:37:57;2.25;;;1.52;;
54372;SDS011;69157;53.094;10.016;2023-11-21T13:40:28;2.50;;;1.52;;
54372;SDS011;69157;53.094;10.016;2023-11-21T13:42:54;3.28;;;2.13;;
54372;SDS011;69157;53.094;10.016;2023-11-21T13:45:24;2.75;;;1.65;;
54372;SDS011;69157;53.094;10.016;2023-11-21T13:47:52;3.63;;;1.80;;
54372;SDS011;69157;53.094;10.016;2023-11-21T13:50:25;2.13;;;1.38;;
54372;SDS011;69157;53.094;10.016;2023-11-21T13:52:59;2.75;;;1.55;;
54372;SDS011;69157;53.094;10.016;2023-11-21T13:55:34;3.72;;;1.55;;
54372;SDS011;69157;53.094;10.016;2023-11-21T13:58:01;2.90;;;1.80;;
54372;SDS011;69157;53.094;10.016;2023-11-21T14:00:35;3.67;;;1.75;;
54372;SDS011;69157;53.094;10.016;2023-11-21T14:03:11;5.00;;;2.13;;
54372;SDS011;69157;53.094;10.016;2023-11-21T14:05:46;3.30;;;1.98;;
54372;SDS011;69157;53.094;10.016;2023-11-21T14:08:16;2.85;;;1.65;;
54372;SDS011;69157;53.094;10.016;2023-11-21T14:10:45;4.15;;;2.08;;
54372;SDS011;69157;53.094;10.016;2023-11-21T14:15:41;4.15;;;2.47;;
54372;SDS011;69157;53.094;10.016;2023-11-21T14:18:11;2.28;;;1.52;;
54372;SDS011;69157;53.094;10.016;2023-11-21T14:20:39;2.55;;;1.70;;
54372;SDS011;69157;53.094;10.016;2023-11-21T14:23:06;2.83;;;1.73;;
54372;SDS011;69157;53.094;10.016;2023-11-21T14:25:34;3.05;;;1.73;;
54372;SDS011;69157;53.094;10.016;2023-11-21T14:28:05;6.57;;;2.05;;
54372;SDS011;69157;53.094;10.016;2023-11-21T14:30:31;13.02;;;7.65;;
54372;SDS011;69157;53.094;10.016;2023-11-21T14:32:59;3.22;;;2.03;;
54372;SDS011;69157;53.094;10.016;2023-11-21T14:35:26;4.10;;;2.00;;
54372;SDS011;69157;53.094;10.016;2023-11-21T14:37:52;3.25;;;2.60;;
54372;SDS011;69157;53.094;10.016;2023-11-21T14:40:20;3.35;;;1.75;;
54372;SDS011;69157;53.094;10.016;2023-11-21T14:42:49;4.68;;;1.70;;
54372;SDS011;69157;53.094;10.016;2023-11-21T14:45:18;3.65;;;2.20;;
54372;SDS011;69157;53.094;10.016;2023-11-21T14:47:45;3.08;;;1.90;;
54372;SDS011;69157;53.094;10.016;2023-11-21T14:50:21;3.80;;;2.03;;
54372;SDS011;69157;53.094;10.016;2023-11-21T14:53:06;3.35;;;1.52;;
54372;SDS011;69157;53.094;10.016;2023-11-21T14:55:33;2.58;;;1.98;;
54372;SDS011;69157;53.094;10.016;2023-11-21T14:58:19;3.92;;;2.08;;
54372;SDS011;69157;53.094;10.016;2023-11-21T15:00:52;5.35;;;3.15;;